Time;durP1;ratioP1;P1;durP2;ratioP2;P2;SDS_P1;SDS_P2;PMS_P1;PMS_P2;Temp;Humidity;BMP_temperature;BMP_pressure;BME280_temperature;BME280_humidity;BME280_pressure;Samples;Min_cycle;Max_cycle;Signal;HPM_P1;HPM_P2
2022/10/28 00:00:32;;;;;;;13.67;9.10;;;20.20;99.90;;;;;;2617318;39;20521;-78
2022/10/28 00:03:35;;;;;;;12.73;9.33;;;20.20;99.90;;;;;;2616869;47;20439;-78
2022/10/28 00:06:07;;;;;;;8.37;7.57;;;20.20;99.60;;;;;;2616706;54;20193;-78
2022/10/28 00:11:55;;;;;;;12.23;9.00;;;20.20;99.30;;;;;;2616946;54;20395;-79
2022/10/28 00:17:42;;;;;;;13.07;8.53;;;20.20;98.70;;;;;;2616472;54;20154;-79
2022/10/28 00:23:30;;;;;;;13.47;9.60;;;20.10;98.10;;;;;;2617202;54;20130;-80
2022/10/28 00:29:23;;;;;;;14.87;8.80;;;20.10;97.70;;;;;;2617212;54;20642;-79
2022/10/28 00:35:11;;;;;;;15.13;9.13;;;20.10;95.60;;;;;;2616267;54;20399;-79
2022/10/28 00:38:34;;;;;;;9.80;8.47;;;20.10;95.40;;;;;;2616945;54;20408;-79
2022/10/28 00:40:59;;;;;;;18.00;9.57;;;20.20;94.50;;;;;;2615855;54;20174;-80
2022/10/28 00:46:49;;;;;;;22.20;10.10;;;20.40;90.60;;;;;;2616603;54;20161;-80
2022/10/28 00:52:38;;;;;;;13.13;8.90;;;20.40;89.80;;;;;;2615942;54;20351;-76
2022/10/28 00:58:27;;;;;;;19.30;8.80;;;20.20;90.40;;;;;;2616878;54;20391;-78
2022/10/28 01:04:15;;;;;;;10.47;8.50;;;20.30;89.10;;;;;;2617139;54;20423;-79
2022/10/28 01:10:04;;;;;;;9.83;8.83;;;20.30;87.20;;;;;;2615666;54;20399;-77
2022/10/28 01:26:57;;;;;;;12.83;9.90;;;20.70;72.80;;;;;;2617796;54;20379;-78
2022/10/28 01:32:58;;;;;;;14.27;9.37;;;20.80;70.00;;;;;;2617794;54;20427;-76
2022/10/28 01:43:07;;;;;;;13.23;9.73;;;21.00;64.00;;;;;;2617160;54;20387;-75
2022/10/28 01:49:00;;;;;;;10.37;9.27;;;20.80;64.40;;;;;;2617434;54;20430;-78
2022/10/28 01:54:53;;;;;;;11.33;10.20;;;20.70;66.30;;;;;;2617367;54;20387;-76
2022/10/28 02:00:43;;;;;;;9.93;8.83;;;20.80;65.90;;;;;;2617203;54;20439;-77
2022/10/28 02:06:33;;;;;;;10.67;9.57;;;20.80;65.20;;;;;;2616827;54;20415;-76
2022/10/28 02:38:12;;;;;;;12.00;9.87;;;20.20;74.30;;;;;;2616488;54;20378;-76
2022/10/28 02:47:27;;;;;;;14.20;8.43;;;20.20;74.10;;;;;;2616102;54;20410;-78
2022/10/28 02:53:21;;;;;;;10.50;9.30;;;20.20;74.80;;;;;;2616750;54;20504;-78
2022/10/28 02:59:12;;;;;;;15.80;10.13;;;20.20;75.60;;;;;;2616776;54;20394;-78
2022/10/28 03:05:00;;;;;;;10.60;9.50;;;20.00;78.40;;;;;;2615884;54;20387;-77
2022/10/28 03:10:48;;;;;;;11.90;8.90;;;20.10;80.20;;;;;;2615940;54;20157;-80
2022/10/28 03:16:36;;;;;;;12.53;9.90;;;20.00;82.20;;;;;;2615959;54;20363;-79
2022/10/28 03:22:24;;;;;;;9.77;8.87;;;20.00;81.10;;;;;;2616510;54;20138;-80
2022/10/28 03:28:12;;;;;;;11.97;10.77;;;19.70;84.60;;;;;;2617955;31;20785;-78
2022/10/28 03:33:59;;;;;;;10.90;9.70;;;19.60;88.00;;;;;;2616620;54;20139;-79
2022/10/28 03:39:47;;;;;;;12.33;9.47;;;19.60;89.20;;;;;;2616036;54;20131;-78
2022/10/28 03:42:52;;;;;;;11.10;9.60;;;19.60;89.90;;;;;;2616364;54;20399;-79
2022/10/28 03:45:18;;;;;;;16.20;9.30;;;19.60;89.60;;;;;;2616062;47;20725;-79
2022/10/28 03:51:06;;;;;;;10.80;9.70;;;19.50;89.90;;;;;;2616632;54;20122;-78
2022/10/28 03:56:54;;;;;;;11.30;9.10;;;19.70;87.80;;;;;;2616594;54;20662;-76
2022/10/28 04:02:42;;;;;;;13.50;8.83;;;19.60;88.60;;;;;;2617198;54;20928;-76
2022/10/28 04:08:29;;;;;;;10.70;9.63;;;19.60;88.50;;;;;;2616969;54;20142;-76
2022/10/28 04:14:17;;;;;;;9.67;8.67;;;19.80;86.30;;;;;;2616958;54;20138;-78
2022/10/28 04:20:05;;;;;;;11.20;10.07;;;19.60;89.20;;;;;;2617565;54;20126;-77
2022/10/28 04:25:54;;;;;;;10.73;8.87;;;19.50;90.60;;;;;;2617005;54;20487;-76
2022/10/28 04:31:42;;;;;;;12.70;8.63;;;19.40;91.80;;;;;;2616702;54;20399;-78
2022/10/28 04:37:29;;;;;;;11.73;8.90;;;19.30;92.50;;;;;;2618122;54;20126;-78
2022/10/28 04:47:22;;;;;;;12.77;8.67;;;19.30;93.00;;;;;;2617617;54;20411;-79
2022/10/28 04:53:11;;;;;;;12.20;9.30;;;19.40;93.30;;;;;;2617575;39;20739;-78
2022/10/28 04:58:59;;;;;;;13.37;8.87;;;19.00;98.00;;;;;;2617014;54;20362;-78
2022/10/28 05:04:46;;;;;;;13.67;11.30;;;18.90;99.30;;;;;;2617608;54;20130;-78
2022/10/28 05:10:34;;;;;;;11.37;9.20;;;18.70;99.90;;;;;;2617206;54;20138;-78
2022/10/28 05:16:21;;;;;;;9.27;8.37;;;18.60;99.90;;;;;;2616801;39;20772;-78
2022/10/28 05:22:10;;;;;;;11.70;8.73;;;19.00;99.90;;;;;;2616703;54;20134;-76
2022/10/28 05:28:01;;;;;;;9.67;8.70;;;19.10;99.90;;;;;;2616296;54;20118;-80
2022/10/28 05:33:49;;;;;;;13.00;8.30;;;19.00;99.90;;;;;;2616876;39;20707;-80
2022/10/28 05:39:37;;;;;;;11.10;8.67;;;19.10;99.90;;;;;;2615795;54;20190;-78
2022/10/28 05:42:52;;;;;;;15.80;9.33;;;19.10;99.90;;;;;;2617668;54;20419;-78
2022/10/28 05:48:43;;;;;;;10.73;9.40;;;19.30;99.50;;;;;;2616363;54;20442;-79
2022/10/28 05:54:30;;;;;;;15.87;9.70;;;19.10;99.90;;;;;;2617505;54;20515;-76
2022/10/28 06:00:22;;;;;;;11.10;8.13;;;19.40;99.90;;;;;;2615279;54;20139;-78
2022/10/28 06:06:12;;;;;;;15.50;10.50;;;19.30;99.90;;;;;;2613387;54;20454;-78
2022/10/28 06:11:59;;;;;;;10.00;8.93;;;19.20;99.90;;;;;;2616066;54;20439;-79
2022/10/28 06:17:48;;;;;;;17.43;8.87;;;19.20;99.90;;;;;;2617976;54;20658;-77
2022/10/28 06:23:36;;;;;;;17.50;11.57;;;19.20;99.90;;;;;;2618223;54;20379;-78
2022/10/28 06:29:24;;;;;;;12.40;10.27;;;19.20;99.90;;;;;;2616696;54;20141;-77
2022/10/28 06:35:11;;;;;;;10.17;9.00;;;19.10;99.90;;;;;;2618040;39;20758;-78
2022/10/28 06:40:59;;;;;;;16.37;9.23;;;19.20;99.90;;;;;;2616216;54;20134;-79
2022/10/28 06:50:09;;;;;;;16.20;9.03;;;19.20;99.90;;;;;;2616412;39;20782;-77
2022/10/28 06:55:57;;;;;;;14.00;9.37;;;19.30;99.90;;;;;;2617221;39;20424;-79
2022/10/28 07:01:45;;;;;;;10.23;9.27;;;19.20;99.90;;;;;;2616380;54;20138;-78
2022/10/28 07:07:36;;;;;;;9.97;8.77;;;19.40;99.90;;;;;;2614954;54;20129;-79
2022/10/28 07:13:24;;;;;;;11.63;9.60;;;19.40;99.90;;;;;;2616699;54;20379;-80
2022/10/28 07:19:11;;;;;;;32.27;9.60;;;19.50;99.90;;;;;;2616427;54;20434;-78
2022/10/28 07:24:59;;;;;;;14.83;8.83;;;20.00;96.00;;;;;;2615490;54;20234;-79
2022/10/28 07:30:48;;;;;;;13.10;11.00;;;20.50;92.50;;;;;;2618464;54;20122;-78
2022/10/28 07:36:35;;;;;;;12.13;9.93;;;20.20;92.60;;;;;;2634918;36;20142;-79
2022/10/28 07:42:23;;;;;;;17.27;9.37;;;20.70;89.70;;;;;;2618484;54;20162;-78
2022/10/28 07:45:38;;;;;;;10.67;9.57;;;21.00;85.90;;;;;;2615651;54;20416;-77
2022/10/28 07:48:04;;;;;;;11.97;10.03;;;21.20;82.30;;;;;;2616328;47;20147;-76
2022/10/28 07:53:51;;;;;;;11.33;10.30;;;21.20;82.30;;;;;;2616047;54;20700;-77
2022/10/28 08:03:09;;;;;;;19.47;8.57;;;20.90;82.70;;;;;;2615345;54;20528;-76
2022/10/28 08:08:56;;;;;;;12.47;9.17;;;20.60;87.20;;;;;;2611848;54;20395;-77
2022/10/28 08:14:43;;;;;;;12.00;9.77;;;20.90;83.20;;;;;;2614885;54;20619;-76
2022/10/28 08:20:31;;;;;;;11.90;9.70;;;21.30;78.80;;;;;;2617178;46;20208;-77
2022/10/28 08:26:19;;;;;;;18.63;11.30;;;21.30;80.50;;;;;;2617199;54;20151;-77
2022/10/28 08:32:08;;;;;;;15.33;9.60;;;21.40;78.60;;;;;;2617545;54;20372;-78
2022/10/28 08:37:55;;;;;;;16.83;10.90;;;21.00;82.90;;;;;;2617028;54;20418;-77
2022/10/28 08:50:30;;;;;;;14.10;10.20;;;21.70;73.60;;;;;;2617362;39;20912;-79
2022/10/28 08:53:03;;;;;;;18.03;10.63;;;22.10;67.40;;;;;;2616332;47;21027;-80
2022/10/28 08:58:53;;;;;;;17.20;10.60;;;22.80;59.40;;;;;;2615945;54;20432;-78
2022/10/28 09:04:45;;;;;;;14.13;10.23;;;23.10;53.60;;;;;;2617393;54;20395;-80
2022/10/28 09:14:16;;;;;;;11.43;10.30;;;24.10;47.30;;;;;;2615175;54;20441;-81
2022/10/28 09:26:50;;;;;;;17.37;10.80;;;24.00;45.50;;;;;;2616254;54;20399;-81
2022/10/28 09:59:04;;;;;;;14.67;11.33;;;25.70;32.40;;;;;;2614860;54;20371;-78
2022/10/28 10:08:16;;;;;;;12.93;9.90;;;25.20;34.50;;;;;;2613579;54;20367;-77
2022/10/28 10:14:10;;;;;;;12.40;10.10;;;25.00;34.80;;;;;;2613652;54;20435;-77
2022/10/28 10:20:09;;;;;;;16.83;12.50;;;26.30;31.20;;;;;;2614206;54;20424;-79
2022/10/28 10:42:21;;;;;;;16.43;12.30;;;24.60;35.70;;;;;;2617044;54;20422;-79
2022/10/28 10:55:02;;;;;;;11.30;10.20;;;25.20;34.10;;;;;;2613256;54;20367;-78
2022/10/28 11:00:54;;;;;;;11.67;10.13;;;25.50;34.30;;;;;;2615124;54;20429;-76
2022/10/28 11:06:43;;;;;;;15.40;10.83;;;26.10;32.60;;;;;;2616205;54;20390;-78
2022/10/28 11:12:36;;;;;;;17.13;11.37;;;26.70;30.60;;;;;;2616952;54;20399;-78
2022/10/28 11:18:23;;;;;;;12.07;10.10;;;26.90;29.50;;;;;;2615699;54;20409;-79
2022/10/28 11:24:19;;;;;;;11.43;10.17;;;25.90;30.00;;;;;;2616827;54;20127;-79
2022/10/28 11:30:14;;;;;;;13.13;11.30;;;28.20;26.70;;;;;;2615594;54;20390;-78
2022/10/28 11:53:16;;;;;;;12.27;11.07;;;26.50;27.50;;;;;;2616712;54;20387;-77
2022/10/28 12:02:53;;;;;;;17.60;11.67;;;25.80;29.40;;;;;;2617455;54;20449;-75
2022/10/28 12:05:22;;;;;;;13.53;11.73;;;26.50;28.50;;;;;;2616364;54;20419;-77
2022/10/28 12:24:38;;;;;;;14.60;11.33;;;27.70;25.60;;;;;;2615173;54;20441;-78
2022/10/28 12:30:30;;;;;;;13.83;12.47;;;27.60;26.00;;;;;;2617431;54;20386;-78
2022/10/28 12:42:35;;;;;;;15.83;11.40;;;27.50;25.70;;;;;;2616334;54;21373;-77
2022/10/28 12:48:40;;;;;;;12.17;11.13;;;27.60;25.80;;;;;;2617701;54;20388;-77
2022/10/28 13:00:53;;;;;;;19.07;12.30;;;28.20;26.00;;;;;;2617765;54;20394;-78
2022/10/28 13:06:43;;;;;;;12.60;10.80;;;27.40;25.90;;;;;;2616698;54;20394;-77
2022/10/28 13:12:33;;;;;;;12.47;11.17;;;26.40;28.20;;;;;;2616715;54;20892;-75
2022/10/28 13:31:41;;;;;;;17.60;11.57;;;25.70;30.00;;;;;;2615870;54;20884;-78
2022/10/28 13:37:34;;;;;;;15.80;11.77;;;25.80;30.00;;;;;;2617301;54;20416;-79
2022/10/28 13:43:47;;;;;;;15.00;10.70;;;25.40;30.90;;;;;;2616323;54;20972;-78
2022/10/28 14:03:18;;;;;;;16.17;11.30;;;26.80;29.60;;;;;;2615118;54;20404;-75
2022/10/28 14:15:42;;;;;;;14.20;12.70;;;25.00;33.00;;;;;;2616281;54;20976;-78
2022/10/28 14:39:07;;;;;;;17.53;11.80;;;24.60;36.50;;;;;;2614683;54;20403;-77
2022/10/28 14:44:55;;;;;;;15.03;12.90;;;24.40;38.30;;;;;;2616267;54;20419;-77
2022/10/28 15:00:38;;;;;;;14.87;11.20;;;23.80;43.70;;;;;;2616155;54;20411;-76
2022/10/28 15:06:31;;;;;;;13.53;11.17;;;23.90;42.40;;;;;;2616649;54;20388;-76
2022/10/28 15:12:21;;;;;;;17.17;13.30;;;23.80;41.80;;;;;;2618546;31;20888;-77
2022/10/28 15:18:24;;;;;;;13.17;11.30;;;23.70;42.30;;;;;;2619085;54;20406;-81
2022/10/28 15:24:14;;;;;;;14.40;11.70;;;23.50;42.10;;;;;;2621692;54;20387;-79
2022/10/28 15:36:34;;;;;;;12.57;11.37;;;22.90;43.60;;;;;;2621769;39;20779;-77
2022/10/28 15:48:57;;;;;;;14.40;11.60;;;22.60;41.60;;;;;;2615547;54;20991;-77
2022/10/28 15:54:59;;;;;;;15.23;11.70;;;22.50;43.00;;;;;;2615995;54;20462;-78
2022/10/28 16:04:42;;;;;;;13.97;11.17;;;22.20;45.10;;;;;;2615701;39;20777;-78
2022/10/28 16:23:39;;;;;;;18.20;11.13;;;21.90;47.80;;;;;;2614697;54;20394;-78
2022/10/28 16:29:29;;;;;;;11.40;10.40;;;21.80;48.90;;;;;;2616181;54;20363;-77
2022/10/28 16:35:23;;;;;;;11.80;10.60;;;21.80;50.20;;;;;;2616173;54;20976;-78
2022/10/28 16:41:18;;;;;;;10.53;9.73;;;21.70;51.70;;;;;;2617175;54;20422;-79
2022/10/28 16:47:26;;;;;;;11.83;10.67;;;21.60;53.30;;;;;;2619585;54;20391;-80
2022/10/28 16:53:14;;;;;;;18.60;10.93;;;21.50;53.70;;;;;;2619164;54;20395;-80
2022/10/28 17:02:28;;;;;;;15.97;11.00;;;21.00;60.30;;;;;;2619209;54;20355;-80
2022/10/28 17:08:19;;;;;;;11.70;10.50;;;21.00;63.10;;;;;;2619476;54;20395;-80
2022/10/28 17:14:06;;;;;;;21.47;11.90;;;20.70;67.00;;;;;;2615220;31;20970;-78
2022/10/28 17:19:55;;;;;;;12.67;11.40;;;20.70;67.30;;;;;;2615926;54;20430;-78
2022/10/28 17:25:43;;;;;;;13.87;10.43;;;20.50;71.60;;;;;;2616457;54;20391;-79
2022/10/28 17:31:31;;;;;;;18.33;10.57;;;20.30;78.40;;;;;;2617595;54;20157;-79
2022/10/28 17:37:18;;;;;;;13.00;10.13;;;20.40;79.80;;;;;;2617319;54;20130;-79
2022/10/28 17:43:06;;;;;;;13.93;10.20;;;20.40;79.10;;;;;;2617928;39;20517;-80
2022/10/28 17:48:55;;;;;;;18.93;9.50;;;20.40;79.90;;;;;;2618147;54;20162;-79
2022/10/28 17:58:05;;;;;;;13.33;9.47;;;20.30;80.70;;;;;;2616699;54;20519;-79
2022/10/28 18:03:53;;;;;;;12.67;9.90;;;20.10;87.40;;;;;;2615941;54;20193;-78
2022/10/28 18:09:41;;;;;;;13.73;10.40;;;19.60;93.80;;;;;;2616042;54;20153;-78
2022/10/28 18:15:28;;;;;;;13.53;10.47;;;19.30;99.90;;;;;;2614396;54;20134;-78
2022/10/28 18:21:17;;;;;;;16.10;10.60;;;19.10;99.90;;;;;;2616477;54;20134;-79
2022/10/28 18:27:04;;;;;;;17.00;10.90;;;19.20;99.90;;;;;;2616052;39;20800;-79
2022/10/28 18:32:52;;;;;;;15.17;10.73;;;18.90;99.90;;;;;;2616048;54;20121;-79
2022/10/28 18:38:40;;;;;;;16.83;10.63;;;18.80;99.90;;;;;;2616223;54;20198;-78
2022/10/28 18:44:30;;;;;;;26.93;10.87;;;18.60;99.90;;;;;;2616557;54;20403;-80
2022/10/28 18:50:18;;;;;;;14.83;10.27;;;18.60;99.90;;;;;;2618439;54;20395;-79
2022/10/28 18:53:29;;;;;;;15.43;10.60;;;18.60;99.90;;;;;;2619170;54;20391;-79
2022/10/28 18:56:01;;;;;;;19.50;11.00;;;18.60;99.90;;;;;;2617882;54;20162;-80
2022/10/28 19:01:49;;;;;;;17.13;10.67;;;18.60;99.90;;;;;;2619382;54;20387;-78
2022/10/28 19:07:37;;;;;;;17.53;12.17;;;18.60;99.90;;;;;;2616351;54;20150;-78
2022/10/28 19:13:25;;;;;;;12.40;10.53;;;18.50;99.90;;;;;;2617279;54;20251;-79
2022/10/28 19:19:12;;;;;;;18.17;10.20;;;18.50;99.90;;;;;;2616540;54;20375;-79
2022/10/28 19:25:00;;;;;;;21.83;11.07;;;18.70;99.90;;;;;;2616041;54;20155;-79
2022/10/28 19:30:49;;;;;;;19.47;10.63;;;18.70;99.90;;;;;;2616114;54;20134;-79
2022/10/28 19:36:37;;;;;;;13.77;10.13;;;18.30;99.90;;;;;;2616308;54;20411;-79
2022/10/28 19:42:25;;;;;;;19.80;10.30;;;18.10;99.90;;;;;;2615719;54;20535;-78
2022/10/28 19:48:13;;;;;;;11.33;10.03;;;18.00;99.90;;;;;;2615718;54;20177;-80
2022/10/28 19:58:03;;;;;;;13.20;10.80;;;18.00;99.90;;;;;;2616503;54;20355;-79
2022/10/28 20:03:53;;;;;;;15.93;10.93;;;18.00;99.90;;;;;;2616270;54;20366;-79
2022/10/28 20:09:40;;;;;;;16.60;10.50;;;18.10;99.90;;;;;;2617131;54;20404;-79
2022/10/28 20:15:28;;;;;;;17.77;10.80;;;18.30;99.90;;;;;;2618103;54;20125;-79
2022/10/28 20:21:18;;;;;;;15.07;10.70;;;18.40;99.90;;;;;;2618484;54;20127;-79
2022/10/28 20:27:06;;;;;;;13.73;10.83;;;18.30;99.90;;;;;;2617246;54;20431;-79
2022/10/28 20:32:54;;;;;;;16.83;10.60;;;18.50;99.90;;;;;;2617199;54;20122;-79
2022/10/28 20:38:42;;;;;;;17.10;10.53;;;18.50;99.90;;;;;;2618167;54;20145;-79
2022/10/28 20:44:30;;;;;;;15.40;11.10;;;18.40;99.90;;;;;;2616638;54;20635;-79
2022/10/28 20:50:18;;;;;;;15.00;9.83;;;18.40;99.90;;;;;;2614036;54;20567;-79
2022/10/28 20:53:30;;;;;;;19.60;11.43;;;18.50;99.90;;;;;;2614981;54;20960;-78
2022/10/28 20:55:56;;;;;;;14.03;9.93;;;18.40;99.90;;;;;;2616877;54;20238;-78
2022/10/28 21:01:44;;;;;;;18.10;11.10;;;18.10;99.90;;;;;;2616053;39;20968;-78
2022/10/28 21:07:32;;;;;;;19.63;11.13;;;17.60;99.90;;;;;;2616857;54;20126;-78
2022/10/28 21:13:19;;;;;;;14.17;11.50;;;17.60;99.90;;;;;;2616783;54;20170;-79
2022/10/28 21:19:07;;;;;;;23.63;10.73;;;17.50;99.90;;;;;;2616041;54;20126;-80
2022/10/28 21:24:55;;;;;;;26.87;11.40;;;17.60;99.90;;;;;;2615994;54;20130;-80
2022/10/28 21:30:42;;;;;;;11.50;9.30;;;17.40;99.90;;;;;;2616640;54;20138;-79
2022/10/28 21:36:30;;;;;;;18.00;10.70;;;17.20;99.90;;;;;;2614722;54;20133;-78
2022/10/28 21:42:18;;;;;;;18.07;12.87;;;17.20;99.90;;;;;;2615823;54;20133;-78
2022/10/28 21:48:06;;;;;;;15.37;11.33;;;17.00;99.90;;;;;;2616126;54;20659;-78
2022/10/28 21:58:02;;;;;;;13.47;10.67;;;17.00;99.90;;;;;;2615342;47;20407;-77
2022/10/28 22:03:53;;;;;;;23.90;13.80;;;17.00;99.90;;;;;;2614610;54;20399;-78
2022/10/28 22:09:40;;;;;;;16.60;10.40;;;17.00;99.90;;;;;;2615334;39;20742;-78
2022/10/28 22:18:49;;;;;;;13.87;10.03;;;16.80;99.90;;;;;;2614943;54;20406;-78
2022/10/28 22:24:37;;;;;;;13.37;10.87;;;17.10;99.90;;;;;;2614164;39;20800;-79
2022/10/28 22:30:24;;;;;;;17.23;11.27;;;17.30;99.90;;;;;;2612952;54;20390;-81
2022/10/28 22:36:18;;;;;;;24.00;10.40;;;17.10;99.90;;;;;;2615669;39;20614;-79
2022/10/28 22:42:06;;;;;;;21.80;11.43;;;16.80;99.90;;;;;;2615765;39;20915;-78
2022/10/28 22:47:54;;;;;;;16.13;11.43;;;16.70;99.90;;;;;;2616119;54;20155;-78
2022/10/28 23:03:49;;;;;;;17.93;10.90;;;16.60;99.90;;;;;;2616373;54;20359;-78
2022/10/28 23:09:36;;;;;;;13.90;11.13;;;16.50;99.90;;;;;;2615363;39;20736;-78
2022/10/28 23:12:21;;;;;;;13.73;10.40;;;16.40;99.90;;;;;;2615156;47;20495;-77
2022/10/28 23:14:46;;;;;;;17.47;10.47;;;16.30;99.90;;;;;;2616283;47;20174;-76
2022/10/28 23:20:36;;;;;;;15.00;9.50;;;16.10;99.90;;;;;;2615295;54;20127;-77
2022/10/28 23:26:25;;;;;;;15.30;11.10;;;16.00;99.90;;;;;;2616358;54;20395;-78
2022/10/28 23:32:12;;;;;;;15.57;10.10;;;15.70;99.90;;;;;;2616183;54;20407;-78
2022/10/28 23:38:01;;;;;;;16.13;11.60;;;15.70;99.90;;;;;;2616641;54;20122;-79
2022/10/28 23:43:50;;;;;;;24.63;10.90;;;15.60;99.90;;;;;;2615377;54;20418;-79
2022/10/28 23:49:38;;;;;;;17.70;11.23;;;15.60;99.90;;;;;;2618021;54;20382;-76
2022/10/28 23:58:48;;;;;;;17.30;12.23;;;15.40;99.90;;;;;;2617460;39;20936;-79
